Time;durP1;ratioP1;P1;durP2;ratioP2;P2;SDS_P1;SDS_P2;PMS_P1;PMS_P2;Temp;Humidity;BMP_temperature;BMP_pressure;BME280_temperature;BME280_humidity;BME280_pressure;Samples;Min_cycle;Max_cycle;Signal;HPM_P1;HPM_P2
2022/04/14 00:01:22;;;;;;;31.98;15.77;;;;;;;;;;5042604;28;20548;-79
2022/04/14 00:03:48;;;;;;;30.80;15.25;;;;;;;;;;5041808;28;20029;-78
2022/04/14 00:06:15;;;;;;;31.23;16.23;;;;;;;;;;5044531;28;20052;-78
2022/04/14 00:08:40;;;;;;;31.30;15.65;;;;;;;;;;5042386;28;20097;-77
2022/04/14 00:11:06;;;;;;;34.45;16.35;;;;;;;;;;5041750;28;20065;-79
2022/04/14 00:13:32;;;;;;;31.13;15.23;;;;;;;;;;5040232;28;20033;-78
2022/04/14 00:15:58;;;;;;;32.53;15.82;;;;;;;;;;5040316;28;20030;-78
2022/04/14 00:18:24;;;;;;;29.92;14.38;;;;;;;;;;5040974;28;20043;-79
2022/04/14 00:20:50;;;;;;;32.10;14.80;;;;;;;;;;5045598;28;20026;-78
2022/04/14 00:23:16;;;;;;;35.63;16.02;;;;;;;;;;5046659;28;20538;-78
2022/04/14 00:25:42;;;;;;;36.42;16.88;;;;;;;;;;5044397;28;20052;-78
2022/04/14 00:28:08;;;;;;;37.53;15.65;;;;;;;;;;5042962;28;20105;-79
2022/04/14 00:30:34;;;;;;;35.08;15.48;;;;;;;;;;5044600;28;20113;-78
2022/04/14 00:33:01;;;;;;;32.47;15.43;;;;;;;;;;5042340;28;20029;-77
2022/04/14 00:35:27;;;;;;;31.08;15.63;;;;;;;;;;5041486;28;20105;-79
2022/04/14 00:37:53;;;;;;;31.25;15.73;;;;;;;;;;5044508;28;20076;-78
2022/04/14 00:40:19;;;;;;;36.70;15.85;;;;;;;;;;5042344;28;20022;-78
2022/04/14 00:42:45;;;;;;;36.25;16.48;;;;;;;;;;5043247;28;20363;-78
2022/04/14 00:45:11;;;;;;;32.72;16.63;;;;;;;;;;5045759;28;20071;-78
2022/04/14 00:47:37;;;;;;;32.97;16.75;;;;;;;;;;5043166;28;20029;-78
2022/04/14 00:50:04;;;;;;;34.17;16.38;;;;;;;;;;5049927;28;20052;-77
2022/04/14 00:52:30;;;;;;;28.50;15.40;;;;;;;;;;5049848;28;20026;-79
2022/04/14 00:54:56;;;;;;;29.00;15.85;;;;;;;;;;5043747;28;20032;-78
2022/04/14 00:57:22;;;;;;;29.65;15.95;;;;;;;;;;5043602;28;20029;-79
2022/04/14 00:59:48;;;;;;;32.83;16.10;;;;;;;;;;5043755;28;20071;-79
2022/04/14 01:02:14;;;;;;;29.58;15.95;;;;;;;;;;5045847;28;20029;-78
2022/04/14 01:04:41;;;;;;;28.92;15.68;;;;;;;;;;5044447;28;20036;-77
2022/04/14 01:07:07;;;;;;;33.20;16.00;;;;;;;;;;5047134;28;20037;-76
2022/04/14 01:09:40;;;;;;;30.85;15.85;;;;;;;;;;5046419;28;20034;-79
2022/04/14 01:12:06;;;;;;;33.13;16.55;;;;;;;;;;5044265;28;20026;-77
2022/04/14 01:14:33;;;;;;;37.28;17.38;;;;;;;;;;5043968;28;20085;-78
2022/04/14 01:17:00;;;;;;;34.15;16.85;;;;;;;;;;5044125;28;20037;-77
2022/04/14 01:19:26;;;;;;;32.92;17.25;;;;;;;;;;5053522;28;20013;-76
2022/04/14 01:21:52;;;;;;;34.90;16.50;;;;;;;;;;5058822;28;20044;-76
2022/04/14 01:24:18;;;;;;;34.80;17.75;;;;;;;;;;5041903;28;20030;-77
2022/04/14 01:26:45;;;;;;;32.72;18.73;;;;;;;;;;5044950;28;20047;-78
2022/04/14 01:29:21;;;;;;;40.30;19.05;;;;;;;;;;5043431;28;20029;-77
2022/04/14 01:31:47;;;;;;;39.08;18.55;;;;;;;;;;5041086;28;20106;-79
2022/04/14 01:34:13;;;;;;;44.33;19.60;;;;;;;;;;5041786;28;20033;-77
2022/04/14 01:36:38;;;;;;;41.97;20.58;;;;;;;;;;5043810;28;20521;-77
2022/04/14 01:39:04;;;;;;;40.78;21.38;;;;;;;;;;5045402;28;20060;-78
2022/04/14 01:41:30;;;;;;;47.60;21.15;;;;;;;;;;5048618;28;20029;-77
2022/04/14 01:43:56;;;;;;;37.28;18.70;;;;;;;;;;5048814;28;20033;-78
2022/04/14 01:46:22;;;;;;;41.00;20.45;;;;;;;;;;5044784;28;20021;-78
2022/04/14 01:48:48;;;;;;;38.92;20.35;;;;;;;;;;5044895;28;20021;-77
2022/04/14 01:51:14;;;;;;;42.78;19.95;;;;;;;;;;5045890;28;20081;-77
2022/04/14 01:53:40;;;;;;;40.75;20.88;;;;;;;;;;5050073;28;20022;-76
2022/04/14 01:56:06;;;;;;;40.33;21.25;;;;;;;;;;5047774;28;20021;-77
2022/04/14 01:58:32;;;;;;;43.47;21.20;;;;;;;;;;5044485;28;20083;-77
2022/04/14 02:00:58;;;;;;;36.90;20.27;;;;;;;;;;5045739;28;20052;-77
2022/04/14 02:03:24;;;;;;;40.38;20.00;;;;;;;;;;5046714;28;20045;-78
2022/04/14 02:05:50;;;;;;;47.38;21.20;;;;;;;;;;5052719;28;20009;-77
2022/04/14 02:08:16;;;;;;;38.72;20.55;;;;;;;;;;5044915;28;20033;-78
2022/04/14 02:10:42;;;;;;;40.50;20.27;;;;;;;;;;5042642;28;20438;-78
2022/04/14 02:13:07;;;;;;;37.55;20.48;;;;;;;;;;5042297;28;20025;-77
2022/04/14 02:15:33;;;;;;;42.92;21.15;;;;;;;;;;5040951;28;20463;-77
2022/04/14 02:17:59;;;;;;;42.67;21.50;;;;;;;;;;5047764;28;20414;-78
2022/04/14 02:20:25;;;;;;;39.10;21.15;;;;;;;;;;5045305;28;20051;-78
2022/04/14 02:22:51;;;;;;;45.90;22.73;;;;;;;;;;5048755;28;20164;-77
2022/04/14 02:25:17;;;;;;;47.83;22.63;;;;;;;;;;5057327;28;20048;-76
2022/04/14 02:27:43;;;;;;;52.20;21.38;;;;;;;;;;5057138;28;20028;-76
2022/04/14 02:30:10;;;;;;;46.65;22.30;;;;;;;;;;5058468;28;20033;-75
2022/04/14 02:32:36;;;;;;;39.05;20.25;;;;;;;;;;5058582;28;20018;-75
2022/04/14 02:35:04;;;;;;;43.67;21.50;;;;;;;;;;5058290;28;20025;-75
2022/04/14 02:37:31;;;;;;;36.33;20.60;;;;;;;;;;5057238;28;20097;-75
2022/04/14 02:39:57;;;;;;;40.55;20.08;;;;;;;;;;5058507;28;20049;-74
2022/04/14 02:42:23;;;;;;;47.92;21.65;;;;;;;;;;5056732;28;20037;-76
2022/04/14 02:44:49;;;;;;;43.97;21.13;;;;;;;;;;5053638;28;20037;-78
2022/04/14 02:47:15;;;;;;;46.22;21.67;;;;;;;;;;5052881;28;20033;-76
2022/04/14 02:49:41;;;;;;;42.70;21.65;;;;;;;;;;5054959;28;20044;-76
2022/04/14 02:52:07;;;;;;;45.85;22.73;;;;;;;;;;5051294;28;20056;-77
2022/04/14 02:54:37;;;;;;;43.33;22.92;;;;;;;;;;5050263;28;20475;-78
2022/04/14 02:57:04;;;;;;;47.00;23.25;;;;;;;;;;5040439;28;20041;-78
2022/04/14 02:59:30;;;;;;;43.45;22.33;;;;;;;;;;5041370;28;20048;-77
2022/04/14 03:01:56;;;;;;;48.47;22.88;;;;;;;;;;5041687;28;20021;-78
2022/04/14 03:04:22;;;;;;;42.80;22.95;;;;;;;;;;5039830;28;20079;-79
2022/04/14 03:22:05;;;;;;;43.85;23.90;;;;;;;;;;5032788;28;20079;-74
2022/04/14 03:24:31;;;;;;;45.35;24.45;;;;;;;;;;5034975;28;20100;-74
2022/04/14 03:26:57;;;;;;;52.38;26.73;;;;;;;;;;5034030;28;20556;-74
2022/04/14 03:29:23;;;;;;;47.17;26.13;;;;;;;;;;5032699;28;20018;-74
2022/04/14 03:31:49;;;;;;;51.70;26.60;;;;;;;;;;5032486;28;20075;-75
2022/04/14 03:34:16;;;;;;;48.05;26.95;;;;;;;;;;5033537;28;20537;-74
2022/04/14 03:36:42;;;;;;;48.70;26.35;;;;;;;;;;5041703;28;20033;-76
2022/04/14 03:39:07;;;;;;;55.75;28.10;;;;;;;;;;5044829;28;20462;-73
2022/04/14 03:41:34;;;;;;;52.08;26.50;;;;;;;;;;5032128;28;20026;-73
2022/04/14 03:44:00;;;;;;;54.75;28.08;;;;;;;;;;5031983;28;20025;-74
2022/04/14 03:46:26;;;;;;;50.28;28.30;;;;;;;;;;5031643;28;20466;-74
2022/04/14 03:48:53;;;;;;;52.90;28.05;;;;;;;;;;5031763;28;20021;-74
2022/04/14 03:51:19;;;;;;;51.47;28.05;;;;;;;;;;5031793;28;20040;-74
2022/04/14 03:53:45;;;;;;;58.42;28.73;;;;;;;;;;5035728;28;20026;-72
2022/04/14 03:56:11;;;;;;;59.55;30.33;;;;;;;;;;5036578;28;20018;-73
2022/04/14 03:58:37;;;;;;;59.50;28.40;;;;;;;;;;5039094;28;20021;-75
2022/04/14 04:01:03;;;;;;;61.45;31.20;;;;;;;;;;5037807;28;20439;-73
2022/04/14 04:03:29;;;;;;;63.20;31.98;;;;;;;;;;5037780;28;20025;-73
2022/04/14 04:05:55;;;;;;;62.63;33.25;;;;;;;;;;5036933;28;20037;-73
2022/04/14 04:08:22;;;;;;;59.03;31.70;;;;;;;;;;5035448;28;20067;-74
2022/04/14 04:10:48;;;;;;;59.85;30.05;;;;;;;;;;5035693;28;20482;-74
2022/04/14 04:13:14;;;;;;;59.92;31.67;;;;;;;;;;5035919;28;20033;-74
2022/04/14 04:15:40;;;;;;;52.88;30.58;;;;;;;;;;5036413;28;20030;-75
2022/04/14 04:18:07;;;;;;;66.03;32.78;;;;;;;;;;5035847;28;20080;-74
2022/04/14 04:20:33;;;;;;;60.00;31.08;;;;;;;;;;5034491;28;20026;-74
2022/04/14 04:22:59;;;;;;;63.20;32.05;;;;;;;;;;5035707;28;20052;-74
2022/04/14 04:25:25;;;;;;;56.30;30.67;;;;;;;;;;5035900;28;20025;-74
2022/04/14 04:27:51;;;;;;;55.00;30.55;;;;;;;;;;5036331;28;20443;-74
2022/04/14 04:30:17;;;;;;;59.05;31.73;;;;;;;;;;5035281;28;20033;-74
2022/04/14 04:32:43;;;;;;;58.42;31.10;;;;;;;;;;5035031;28;20150;-74
2022/04/14 04:35:10;;;;;;;62.58;32.72;;;;;;;;;;5034538;28;20029;-73
2022/04/14 04:37:36;;;;;;;61.05;32.22;;;;;;;;;;5033495;28;20100;-74
2022/04/14 04:40:02;;;;;;;62.55;32.45;;;;;;;;;;5035358;28;20489;-73
2022/04/14 04:42:28;;;;;;;65.10;33.13;;;;;;;;;;5035142;28;20051;-74
2022/04/14 04:44:53;;;;;;;65.15;33.22;;;;;;;;;;5034901;28;20026;-73
2022/04/14 04:47:22;;;;;;;67.38;33.33;;;;;;;;;;5034762;28;20048;-73
2022/04/14 04:49:48;;;;;;;59.72;33.42;;;;;;;;;;5035057;28;20048;-73
2022/04/14 04:52:15;;;;;;;63.30;33.83;;;;;;;;;;5035029;28;20030;-74
2022/04/14 04:54:41;;;;;;;64.07;33.08;;;;;;;;;;5035593;28;20470;-74
2022/04/14 04:57:07;;;;;;;62.90;33.05;;;;;;;;;;5034384;28;20044;-73
2022/04/14 04:59:33;;;;;;;62.65;33.97;;;;;;;;;;5034785;28;20101;-74
2022/04/14 05:01:59;;;;;;;59.28;33.33;;;;;;;;;;5034663;28;20052;-74
2022/04/14 05:04:25;;;;;;;59.28;33.17;;;;;;;;;;5034152;28;20367;-74
2022/04/14 05:06:51;;;;;;;62.30;33.45;;;;;;;;;;5039193;28;20084;-74
2022/04/14 05:09:17;;;;;;;66.18;34.60;;;;;;;;;;5034333;28;20513;-74
2022/04/14 05:11:43;;;;;;;58.65;33.13;;;;;;;;;;5034475;28;20104;-73
2022/04/14 05:14:09;;;;;;;60.85;34.20;;;;;;;;;;5034583;28;20073;-75
2022/04/14 05:16:36;;;;;;;63.97;34.65;;;;;;;;;;5035634;28;20022;-73
2022/04/14 05:19:02;;;;;;;59.58;32.35;;;;;;;;;;5038775;28;20512;-74
2022/04/14 05:21:28;;;;;;;63.15;33.88;;;;;;;;;;5035697;28;20471;-75
2022/04/14 05:23:54;;;;;;;56.60;32.30;;;;;;;;;;5035629;28;20033;-76
2022/04/14 05:26:20;;;;;;;60.22;32.97;;;;;;;;;;5036657;28;20029;-76
2022/04/14 05:28:46;;;;;;;60.65;33.22;;;;;;;;;;5038554;28;20022;-76
2022/04/14 05:31:12;;;;;;;56.97;32.17;;;;;;;;;;5046738;28;20041;-76
2022/04/14 05:33:38;;;;;;;60.30;33.67;;;;;;;;;;5034314;28;20418;-75
2022/04/14 05:36:04;;;;;;;65.57;35.92;;;;;;;;;;5034026;28;20468;-76
2022/04/14 05:38:31;;;;;;;62.88;33.55;;;;;;;;;;5036826;28;20170;-77
2022/04/14 05:40:57;;;;;;;66.22;33.55;;;;;;;;;;5036580;28;20017;-76
2022/04/14 05:43:28;;;;;;;59.53;33.75;;;;;;;;;;5036232;28;20018;-75
2022/04/14 05:45:54;;;;;;;61.25;33.10;;;;;;;;;;5033853;28;20108;-75
2022/04/14 05:48:21;;;;;;;61.28;33.42;;;;;;;;;;5033713;28;20030;-74
2022/04/14 05:50:47;;;;;;;63.78;34.97;;;;;;;;;;5032435;28;20069;-74
2022/04/14 05:53:13;;;;;;;69.60;34.45;;;;;;;;;;5032344;28;20026;-75
2022/04/14 05:55:41;;;;;;;61.03;33.13;;;;;;;;;;5015774;28;20080;-74
2022/04/14 05:58:07;;;;;;;64.95;33.58;;;;;;;;;;5015638;28;20029;-74
2022/04/14 06:00:34;;;;;;;70.38;34.35;;;;;;;;;;5015487;28;20387;-74
2022/04/14 06:03:00;;;;;;;56.95;32.33;;;;;;;;;;5015363;28;20022;-73
2022/04/14 06:05:27;;;;;;;57.92;32.08;;;;;;;;;;5014171;28;20387;-74
2022/04/14 06:07:53;;;;;;;56.15;32.35;;;;;;;;;;5014072;28;20033;-73
2022/04/14 06:10:19;;;;;;;64.03;33.70;;;;;;;;;;5013881;28;20056;-72
2022/04/14 06:12:45;;;;;;;57.38;31.95;;;;;;;;;;5014787;28;20499;-73
2022/04/14 06:15:11;;;;;;;53.60;31.40;;;;;;;;;;5012928;28;20021;-74
2022/04/14 06:17:37;;;;;;;59.92;30.88;;;;;;;;;;5013628;28;20117;-74
2022/04/14 06:20:03;;;;;;;54.85;31.08;;;;;;;;;;5013922;28;20033;-73
2022/04/14 06:22:30;;;;;;;57.20;32.88;;;;;;;;;;5013212;28;20026;-73
2022/04/14 06:24:59;;;;;;;56.03;30.52;;;;;;;;;;5012197;28;20030;-74
2022/04/14 06:27:25;;;;;;;51.35;29.42;;;;;;;;;;5013772;28;20510;-74
2022/04/14 06:29:51;;;;;;;57.00;31.50;;;;;;;;;;5018057;28;20032;-74
2022/04/14 06:32:17;;;;;;;51.65;31.05;;;;;;;;;;5015877;28;20026;-75
2022/04/14 06:34:43;;;;;;;50.33;30.77;;;;;;;;;;5013267;28;20479;-74
2022/04/14 06:37:09;;;;;;;51.38;30.65;;;;;;;;;;5012425;28;20058;-73
2022/04/14 06:39:34;;;;;;;52.42;31.23;;;;;;;;;;5012818;28;20050;-73
2022/04/14 06:42:00;;;;;;;59.50;31.25;;;;;;;;;;5012209;28;20045;-74
2022/04/14 06:44:26;;;;;;;53.90;31.20;;;;;;;;;;5013046;28;20418;-73
2022/04/14 06:46:52;;;;;;;51.33;31.77;;;;;;;;;;5013512;28;20391;-73
2022/04/14 06:49:19;;;;;;;54.15;32.05;;;;;;;;;;5012666;28;20512;-75
2022/04/14 06:51:45;;;;;;;58.20;32.10;;;;;;;;;;5012769;28;20021;-74
2022/04/14 06:54:11;;;;;;;60.60;35.00;;;;;;;;;;5015050;28;20034;-73
2022/04/14 06:56:37;;;;;;;53.67;31.10;;;;;;;;;;5012724;28;20029;-74
2022/04/14 06:59:02;;;;;;;52.45;30.67;;;;;;;;;;5013801;28;20037;-74
2022/04/14 07:01:28;;;;;;;53.70;30.67;;;;;;;;;;5013857;28;20026;-74
2022/04/14 07:03:54;;;;;;;56.40;32.13;;;;;;;;;;5013727;28;20026;-73
2022/04/14 07:06:20;;;;;;;49.03;30.20;;;;;;;;;;5012914;28;20029;-73
2022/04/14 07:08:46;;;;;;;49.47;29.90;;;;;;;;;;5012878;28;20064;-73
2022/04/14 07:11:13;;;;;;;52.97;29.10;;;;;;;;;;5013516;28;20494;-74
2022/04/14 07:13:39;;;;;;;44.38;28.27;;;;;;;;;;5013462;28;20061;-74
2022/04/14 07:16:05;;;;;;;53.10;29.98;;;;;;;;;;5013253;28;20105;-74
2022/04/14 07:18:31;;;;;;;61.75;30.63;;;;;;;;;;5011499;28;20109;-73
2022/04/14 07:20:57;;;;;;;54.30;28.63;;;;;;;;;;5013212;28;20109;-74
2022/04/14 07:23:23;;;;;;;47.00;25.75;;;;;;;;;;5012864;28;20022;-74
2022/04/14 07:25:49;;;;;;;48.08;26.88;;;;;;;;;;5014023;28;20033;-73
2022/04/14 07:28:15;;;;;;;53.83;28.10;;;;;;;;;;5013205;28;20033;-74
2022/04/14 07:30:42;;;;;;;49.90;28.42;;;;;;;;;;5012929;28;20033;-73
2022/04/14 07:33:08;;;;;;;53.78;29.88;;;;;;;;;;5012498;28;20026;-74
2022/04/14 07:35:34;;;;;;;50.40;31.30;;;;;;;;;;5014781;28;20033;-73
2022/04/14 07:38:00;;;;;;;48.53;29.73;;;;;;;;;;5012825;28;20022;-72
2022/04/14 07:40:26;;;;;;;49.08;30.13;;;;;;;;;;5014002;28;20045;-74
2022/04/14 07:42:52;;;;;;;55.58;30.70;;;;;;;;;;5012703;28;20018;-74
2022/04/14 07:45:18;;;;;;;54.60;31.13;;;;;;;;;;5012737;28;20029;-74
2022/04/14 07:47:45;;;;;;;59.50;34.08;;;;;;;;;;5012749;28;20026;-73
2022/04/14 07:50:12;;;;;;;56.45;33.03;;;;;;;;;;5012341;28;20080;-73
2022/04/14 07:53:04;;;;;;;57.50;32.40;;;;;;;;;;5012566;28;20036;-73
2022/04/14 07:55:31;;;;;;;57.13;31.50;;;;;;;;;;5010809;28;20038;-74
2022/04/14 07:57:58;;;;;;;59.83;30.88;;;;;;;;;;5011956;28;20044;-75
2022/04/14 08:00:25;;;;;;;61.65;31.20;;;;;;;;;;5011945;28;20053;-74
2022/04/14 08:02:53;;;;;;;57.33;31.98;;;;;;;;;;5012028;28;20018;-73
2022/04/14 08:05:20;;;;;;;53.13;31.38;;;;;;;;;;5011970;28;20026;-74
2022/04/14 08:07:46;;;;;;;56.42;30.73;;;;;;;;;;5011120;28;20037;-74
2022/04/14 08:10:12;;;;;;;50.53;29.55;;;;;;;;;;5012472;28;20041;-74
2022/04/14 08:12:38;;;;;;;59.35;30.55;;;;;;;;;;5012042;28;20030;-74
2022/04/14 08:15:04;;;;;;;59.22;29.92;;;;;;;;;;5012477;28;20030;-74
2022/04/14 08:17:32;;;;;;;52.08;30.15;;;;;;;;;;5011718;28;20025;-74
2022/04/14 08:19:58;;;;;;;46.30;29.30;;;;;;;;;;5012261;28;20076;-74
2022/04/14 08:22:24;;;;;;;50.10;29.17;;;;;;;;;;5012403;28;20058;-74
2022/04/14 08:24:50;;;;;;;53.28;29.33;;;;;;;;;;5012375;28;20080;-74
2022/04/14 08:27:18;;;;;;;54.30;28.60;;;;;;;;;;5012152;28;20030;-74
2022/04/14 08:29:44;;;;;;;47.40;26.58;;;;;;;;;;5012019;28;20033;-74
2022/04/14 08:32:10;;;;;;;55.28;28.65;;;;;;;;;;5017827;28;20566;-73
2022/04/14 08:34:36;;;;;;;52.42;29.42;;;;;;;;;;5015086;28;20060;-73
2022/04/14 08:37:02;;;;;;;51.03;28.55;;;;;;;;;;5015937;28;20033;-74
2022/04/14 08:39:30;;;;;;;45.13;27.75;;;;;;;;;;5016624;28;20037;-74
2022/04/14 08:42:00;;;;;;;49.50;27.73;;;;;;;;;;5016972;28;20018;-75
2022/04/14 08:44:29;;;;;;;43.63;26.90;;;;;;;;;;5017719;28;20030;-74
2022/04/14 08:46:55;;;;;;;51.85;27.17;;;;;;;;;;5015780;28;20546;-75
2022/04/14 08:49:22;;;;;;;45.50;26.55;;;;;;;;;;5016255;28;20025;-75
2022/04/14 08:51:49;;;;;;;45.97;26.80;;;;;;;;;;5015844;28;20582;-77
2022/04/14 08:54:15;;;;;;;45.90;25.08;;;;;;;;;;5017382;28;20030;-75
2022/04/14 08:56:41;;;;;;;44.50;23.92;;;;;;;;;;5016880;28;20172;-74
2022/04/14 08:59:08;;;;;;;37.97;23.33;;;;;;;;;;5016369;28;20025;-76
2022/04/14 09:01:35;;;;;;;40.65;23.90;;;;;;;;;;5017781;28;20030;-74
2022/04/14 09:04:01;;;;;;;42.28;24.50;;;;;;;;;;5019925;28;20103;-76
2022/04/14 09:06:29;;;;;;;35.00;23.15;;;;;;;;;;5015005;28;20040;-74
2022/04/14 09:08:59;;;;;;;44.28;22.70;;;;;;;;;;5047052;22;20038;-79
2022/04/14 09:11:26;;;;;;;54.72;26.08;;;;;;;;;;5056784;28;20044;-78
2022/04/14 09:13:52;;;;;;;52.72;25.27;;;;;;;;;;5036499;28;20044;-78
2022/04/14 09:16:19;;;;;;;46.70;24.02;;;;;;;;;;5026765;28;20033;-78
2022/04/14 09:18:46;;;;;;;37.60;24.23;;;;;;;;;;5018856;28;20026;-77
2022/04/14 09:21:13;;;;;;;34.22;22.33;;;;;;;;;;5019148;28;20077;-77
2022/04/14 09:23:39;;;;;;;41.03;23.52;;;;;;;;;;5029346;28;20025;-78
2022/04/14 09:26:23;;;;;;;39.47;22.10;;;;;;;;;;5032291;28;20059;-77
2022/04/14 09:29:10;;;;;;;44.97;23.70;;;;;;;;;;5022360;28;20391;-78
2022/04/14 09:31:49;;;;;;;35.60;20.20;;;;;;;;;;5020521;28;20041;-78
2022/04/14 09:34:17;;;;;;;34.50;19.92;;;;;;;;;;5021627;28;20080;-78
2022/04/14 09:37:03;;;;;;;33.80;20.17;;;;;;;;;;5019983;28;20081;-78
2022/04/14 09:39:29;;;;;;;31.88;20.15;;;;;;;;;;5019214;28;20030;-78
2022/04/14 09:41:55;;;;;;;36.58;19.63;;;;;;;;;;5021481;28;20018;-77
2022/04/14 09:44:23;;;;;;;36.25;19.45;;;;;;;;;;5019887;28;20113;-79
2022/04/14 09:46:49;;;;;;;32.95;19.35;;;;;;;;;;5038341;28;20025;-79
2022/04/14 09:49:16;;;;;;;31.75;19.27;;;;;;;;;;5037067;28;20038;-78
2022/04/14 09:51:43;;;;;;;31.73;18.77;;;;;;;;;;5037771;28;20038;-77
2022/04/14 09:54:17;;;;;;;38.05;19.52;;;;;;;;;;5037496;28;20022;-78
2022/04/14 09:56:53;;;;;;;33.63;20.58;;;;;;;;;;5038889;28;20014;-77
2022/04/14 09:59:23;;;;;;;37.10;20.98;;;;;;;;;;5036086;28;20057;-78
2022/04/14 10:01:50;;;;;;;30.23;18.88;;;;;;;;;;5027956;28;20178;-79
2022/04/14 10:04:32;;;;;;;33.08;19.00;;;;;;;;;;5024826;28;20032;-78
2022/04/14 10:07:03;;;;;;;31.70;18.27;;;;;;;;;;5020047;28;20061;-78
2022/04/14 10:09:30;;;;;;;32.92;19.08;;;;;;;;;;5022467;28;20038;-77
2022/04/14 10:11:56;;;;;;;27.58;16.90;;;;;;;;;;5028622;28;20018;-77
2022/04/14 10:14:24;;;;;;;29.90;17.85;;;;;;;;;;5032426;28;20091;-78
2022/04/14 10:16:51;;;;;;;27.80;17.60;;;;;;;;;;5030473;28;20076;-78
2022/04/14 10:19:17;;;;;;;32.28;17.48;;;;;;;;;;5021282;28;20026;-79
2022/04/14 10:21:44;;;;;;;23.88;15.65;;;;;;;;;;5024240;28;20022;-79
2022/04/14 10:24:11;;;;;;;24.40;16.08;;;;;;;;;;5023651;28;20079;-78
2022/04/14 10:26:38;;;;;;;25.17;14.73;;;;;;;;;;5020980;28;20025;-78
2022/04/14 10:29:06;;;;;;;29.30;16.67;;;;;;;;;;5019440;28;20029;-78
2022/04/14 10:31:34;;;;;;;25.23;16.02;;;;;;;;;;5022256;28;20022;-77
2022/04/14 10:34:04;;;;;;;22.00;14.55;;;;;;;;;;5023202;28;20021;-78
2022/04/14 10:36:30;;;;;;;22.30;13.57;;;;;;;;;;5028895;28;20022;-78
2022/04/14 10:38:57;;;;;;;20.05;12.52;;;;;;;;;;5020596;28;20022;-78
2022/04/14 10:41:25;;;;;;;22.73;12.77;;;;;;;;;;5023603;28;20380;-77
2022/04/14 10:43:51;;;;;;;24.75;11.73;;;;;;;;;;5025567;28;20026;-78
2022/04/14 10:46:18;;;;;;;22.65;13.45;;;;;;;;;;5018906;28;20053;-78
2022/04/14 10:48:45;;;;;;;18.67;13.52;;;;;;;;;;5019168;28;20068;-78
2022/04/14 10:51:19;;;;;;;22.45;12.98;;;;;;;;;;5020989;28;20057;-78
2022/04/14 10:53:48;;;;;;;17.75;11.82;;;;;;;;;;5018217;28;20018;-79
2022/04/14 10:56:33;;;;;;;17.35;11.93;;;;;;;;;;5022871;28;20329;-78
2022/04/14 10:58:59;;;;;;;21.90;12.13;;;;;;;;;;5023551;28;20050;-79
2022/04/14 11:01:44;;;;;;;21.55;11.77;;;;;;;;;;5026818;28;20033;-78
2022/04/14 11:04:25;;;;;;;20.65;11.98;;;;;;;;;;5024019;28;20021;-79
2022/04/14 11:06:51;;;;;;;25.27;13.98;;;;;;;;;;5025890;28;20382;-80
2022/04/14 11:09:36;;;;;;;21.73;11.88;;;;;;;;;;5024211;28;20030;-77
2022/04/14 11:12:02;;;;;;;;;;;;;;;;;;5022819;28;20046;-78
2022/04/14 11:14:28;;;;;;;22.05;12.05;;;;;;;;;;5023696;28;20405;-77
2022/04/14 11:16:54;;;;;;;19.88;11.75;;;;;;;;;;5021754;28;20033;-77
2022/04/14 11:19:21;;;;;;;15.95;10.20;;;;;;;;;;5022715;28;20028;-78
2022/04/14 11:22:00;;;;;;;16.13;10.32;;;;;;;;;;5021988;28;20014;-78
2022/04/14 11:24:39;;;;;;;20.98;11.77;;;;;;;;;;5022123;28;20563;-79
2022/04/14 11:27:12;;;;;;;19.33;10.30;;;;;;;;;;5021653;28;20347;-77
2022/04/14 11:29:38;;;;;;;18.75;9.82;;;;;;;;;;5024798;28;20036;-79
2022/04/14 11:32:05;;;;;;;18.35;10.35;;;;;;;;;;5017798;28;20057;-76
2022/04/14 11:34:31;;;;;;;15.50;9.15;;;;;;;;;;5016311;28;20052;-76
2022/04/14 11:36:59;;;;;;;17.35;10.45;;;;;;;;;;5020720;28;20083;-77
2022/04/14 11:39:25;;;;;;;19.73;9.45;;;;;;;;;;5020610;28;20041;-77
2022/04/14 11:41:53;;;;;;;14.93;8.52;;;;;;;;;;5016767;28;20037;-77
2022/04/14 11:44:30;;;;;;;17.25;9.77;;;;;;;;;;5023444;28;20022;-77
2022/04/14 11:46:58;;;;;;;19.50;9.25;;;;;;;;;;5017863;28;20053;-76
2022/04/14 11:49:31;;;;;;;13.38;8.77;;;;;;;;;;5014631;28;20125;-76
2022/04/14 11:51:58;;;;;;;15.35;9.52;;;;;;;;;;5017151;28;20029;-77
2022/04/14 11:54:27;;;;;;;16.17;10.00;;;;;;;;;;5013877;28;20033;-77
2022/04/14 11:56:54;;;;;;;13.32;8.50;;;;;;;;;;5016228;28;20034;-80
2022/04/14 11:59:29;;;;;;;11.73;6.80;;;;;;;;;;5019858;28;20026;-78
2022/04/14 12:01:58;;;;;;;14.75;6.72;;;;;;;;;;5022839;28;20048;-79
2022/04/14 12:04:23;;;;;;;14.38;7.97;;;;;;;;;;5021540;28;20029;-77
2022/04/14 12:06:56;;;;;;;13.13;8.20;;;;;;;;;;5019410;28;20034;-79
2022/04/14 12:09:24;;;;;;;16.25;8.80;;;;;;;;;;5019189;28;20037;-77
2022/04/14 12:11:50;;;;;;;10.98;7.60;;;;;;;;;;5019639;28;20022;-80
2022/04/14 12:14:17;;;;;;;12.82;7.30;;;;;;;;;;5032405;28;20030;-80
2022/04/14 12:16:53;;;;;;;11.40;7.30;;;;;;;;;;5043947;28;20383;-79
2022/04/14 12:19:22;;;;;;;34.28;22.30;;;;;;;;;;5027407;28;20026;-79
2022/04/14 12:22:07;;;;;;;15.77;8.32;;;;;;;;;;5032426;28;20006;-80
2022/04/14 12:24:34;;;;;;;12.48;7.63;;;;;;;;;;5046151;28;20022;-78
2022/04/14 12:27:00;;;;;;;12.48;7.75;;;;;;;;;;5050257;28;20049;-77
2022/04/14 12:29:27;;;;;;;15.20;8.13;;;;;;;;;;5030318;28;20068;-78
2022/04/14 12:32:11;;;;;;;17.27;7.85;;;;;;;;;;5029727;28;20030;-78
2022/04/14 12:34:44;;;;;;;14.80;7.68;;;;;;;;;;5023239;28;20545;-79
2022/04/14 12:37:13;;;;;;;14.25;7.10;;;;;;;;;;5023927;28;20482;-78
2022/04/14 12:39:53;;;;;;;13.63;7.20;;;;;;;;;;5022935;28;20025;-80
2022/04/14 12:42:19;;;;;;;16.17;7.82;;;;;;;;;;5024561;28;20018;-77
2022/04/14 12:44:45;;;;;;;11.65;6.68;;;;;;;;;;5027473;28;20065;-79
2022/04/14 12:47:13;;;;;;;14.93;7.82;;;;;;;;;;5023316;28;20084;-78
2022/04/14 12:49:39;;;;;;;19.60;9.27;;;;;;;;;;5039848;28;20048;-77
2022/04/14 12:52:07;;;;;;;23.17;13.45;;;;;;;;;;5023533;28;20109;-77
2022/04/14 12:54:34;;;;;;;28.35;13.55;;;;;;;;;;5021696;28;20143;-77
2022/04/14 12:57:09;;;;;;;36.13;16.90;;;;;;;;;;5022607;28;20103;-78
2022/04/14 12:59:36;;;;;;;26.25;15.10;;;;;;;;;;5021331;28;20018;-79
2022/04/14 13:02:02;;;;;;;27.40;13.93;;;;;;;;;;5020846;28;20475;-77
2022/04/14 13:04:44;;;;;;;26.88;15.45;;;;;;;;;;5021470;28;20037;-80
2022/04/14 13:07:14;;;;;;;38.03;16.92;;;;;;;;;;5022055;28;20029;-80
2022/04/14 13:09:56;;;;;;;35.90;15.18;;;;;;;;;;5022769;28;20034;-78
2022/04/14 13:12:41;;;;;;;33.05;14.60;;;;;;;;;;5039921;28;20490;-79
2022/04/14 13:15:11;;;;;;;26.27;15.15;;;;;;;;;;5043660;28;20492;-78
2022/04/14 13:17:38;;;;;;;28.38;14.45;;;;;;;;;;5045561;28;20030;-78
2022/04/14 13:20:11;;;;;;;29.17;14.35;;;;;;;;;;5044910;28;20100;-78
2022/04/14 13:22:37;;;;;;;24.75;13.10;;;;;;;;;;5053390;28;20044;-76
2022/04/14 13:25:03;;;;;;;28.33;14.98;;;;;;;;;;5049593;28;20021;-79
2022/04/14 13:27:29;;;;;;;21.88;12.68;;;;;;;;;;5051079;28;20044;-78
2022/04/14 13:29:55;;;;;;;20.88;13.38;;;;;;;;;;5043984;28;20014;-79
2022/04/14 13:32:22;;;;;;;27.63;13.98;;;;;;;;;;5042788;28;20025;-83
2022/04/14 13:34:48;;;;;;;28.38;17.38;;;;;;;;;;5041992;28;20040;-80
2022/04/14 13:37:14;;;;;;;27.48;13.77;;;;;;;;;;5043788;28;20410;-78
2022/04/14 13:39:41;;;;;;;21.48;13.18;;;;;;;;;;5042031;28;20036;-78
2022/04/14 13:42:07;;;;;;;26.40;13.32;;;;;;;;;;5043570;28;20033;-81
2022/04/14 13:44:33;;;;;;;23.05;14.40;;;;;;;;;;5042759;28;20037;-79
2022/04/14 13:46:59;;;;;;;28.58;15.77;;;;;;;;;;5044261;28;20035;-81
2022/04/14 13:49:25;;;;;;;24.45;14.18;;;;;;;;;;5046102;28;20045;-81
2022/04/14 13:51:52;;;;;;;30.02;14.68;;;;;;;;;;5053515;28;20029;-77
2022/04/14 13:54:18;;;;;;;25.67;15.18;;;;;;;;;;5055377;28;20029;-78
2022/04/14 13:56:44;;;;;;;27.70;15.38;;;;;;;;;;5045404;28;20021;-83
2022/04/14 13:59:10;;;;;;;28.27;16.17;;;;;;;;;;5042105;28;20030;-78
2022/04/14 14:01:37;;;;;;;31.00;15.15;;;;;;;;;;5038915;28;20021;-78
2022/04/14 14:04:03;;;;;;;29.27;15.68;;;;;;;;;;5048783;28;20091;-79
2022/04/14 14:06:29;;;;;;;34.78;14.48;;;;;;;;;;5049317;28;20049;-80
2022/04/14 14:08:55;;;;;;;29.70;14.40;;;;;;;;;;5040455;28;20133;-80
2022/04/14 14:11:21;;;;;;;26.67;14.02;;;;;;;;;;5043450;28;20025;-79
2022/04/14 14:13:49;;;;;;;31.50;15.23;;;;;;;;;;5042492;28;20026;-81
2022/04/14 14:16:15;;;;;;;34.90;16.15;;;;;;;;;;5040733;28;20047;-80
2022/04/14 14:18:42;;;;;;;31.23;15.80;;;;;;;;;;5041895;28;20076;-79
2022/04/14 14:21:08;;;;;;;30.73;14.57;;;;;;;;;;5043446;28;20479;-78
2022/04/14 14:23:34;;;;;;;29.83;14.20;;;;;;;;;;5043627;28;20057;-81
2022/04/14 14:26:00;;;;;;;26.58;13.80;;;;;;;;;;5043433;28;20051;-79
2022/04/14 14:28:27;;;;;;;30.73;13.63;;;;;;;;;;5042371;28;20091;-79
2022/04/14 14:30:53;;;;;;;25.40;12.23;;;;;;;;;;5044521;28;20113;-80
2022/04/14 14:33:19;;;;;;;27.73;11.75;;;;;;;;;;5043718;28;20033;-78
2022/04/14 14:35:45;;;;;;;33.83;13.32;;;;;;;;;;5043532;28;20033;-79